Time;durP1;ratioP1;P1;durP2;ratioP2;P2;SDS_P1;SDS_P2;PMS_P1;PMS_P2;Temp;Humidity;BMP_temperature;BMP_pressure;BME280_temperature;BME280_humidity;BME280_pressure;Samples;Min_cycle;Max_cycle;Signal;HPM_P1;HPM_P2
2023/08/03 00:00:03;;;;;;;13.20;9.70;;;;;;;23.75;75.18;94725.44;4930113;29;20225;-69
2023/08/03 00:02:33;;;;;;;13.48;9.73;;;;;;;23.90;74.24;94725.25;4931755;28;20246;-69
2023/08/03 00:04:59;;;;;;;14.23;9.85;;;;;;;23.90;74.27;94727.94;4932453;28;20727;-79
2023/08/03 00:07:24;;;;;;;13.45;10.15;;;;;;;23.99;74.20;94736.09;4932261;29;20316;-78
2023/08/03 00:09:50;;;;;;;15.70;9.80;;;;;;;23.93;74.22;94740.69;4936436;28;20245;-78
2023/08/03 00:12:17;;;;;;;14.25;9.77;;;;;;;23.95;74.12;94735.09;4923329;29;20229;-79
2023/08/03 00:14:43;;;;;;;12.23;9.60;;;;;;;23.73;74.95;94735.63;4932063;29;20234;-79
2023/08/03 00:17:09;;;;;;;11.00;9.02;;;;;;;23.70;75.13;94727.38;4986374;28;20285;-79
2023/08/03 00:19:37;;;;;;;15.50;9.98;;;;;;;23.62;75.52;94733.38;5019472;28;20256;-78
2023/08/03 00:22:02;;;;;;;12.13;9.48;;;;;;;23.62;76.00;94730.69;4953043;28;20238;-80
2023/08/03 00:24:28;;;;;;;15.07;9.77;;;;;;;23.68;75.53;94727.66;4933183;29;20793;-78
2023/08/03 00:26:53;;;;;;;15.20;10.18;;;;;;;23.58;75.80;94726.97;4928042;28;20238;-78
2023/08/03 00:29:19;;;;;;;16.08;9.88;;;;;;;23.48;75.88;94733.22;4929040;28;20299;-78
2023/08/03 00:31:44;;;;;;;16.88;9.63;;;;;;;23.52;76.27;94725.44;4932010;28;20225;-78
2023/08/03 00:34:09;;;;;;;15.20;10.63;;;;;;;23.51;76.25;94731.88;4933926;28;20229;-78
2023/08/03 00:36:35;;;;;;;16.52;10.18;;;;;;;23.53;76.19;94722.47;4963140;28;20236;-78
2023/08/03 00:39:00;;;;;;;12.85;9.77;;;;;;;23.57;76.19;94728.06;4921484;29;20676;-79
2023/08/03 00:41:26;;;;;;;17.08;10.43;;;;;;;23.49;76.10;94726.81;4931303;29;20252;-78
2023/08/03 00:43:51;;;;;;;17.30;10.00;;;;;;;23.35;77.08;94733.91;4932872;29;20706;-78
2023/08/03 00:46:17;;;;;;;15.30;9.85;;;;;;;23.38;77.10;94728.00;4929054;28;20618;-79
2023/08/03 00:48:42;;;;;;;14.90;9.82;;;;;;;23.47;76.93;94730.84;4931002;29;20237;-79
2023/08/03 00:51:08;;;;;;;14.20;9.75;;;;;;;23.45;76.99;94723.91;4953851;28;20233;-78
2023/08/03 00:53:33;;;;;;;15.18;10.20;;;;;;;23.39;77.23;94725.06;4959795;28;20256;-79
2023/08/03 00:55:59;;;;;;;14.52;9.60;;;;;;;23.38;77.29;94725.34;5007983;28;20232;-78
2023/08/03 00:58:25;;;;;;;15.23;10.00;;;;;;;23.15;78.55;94734.88;4968806;28;20235;-79
2023/08/03 01:00:50;;;;;;;12.75;9.95;;;;;;;23.21;78.45;94730.28;4924323;28;20236;-78
2023/08/03 01:03:15;;;;;;;13.57;10.27;;;;;;;23.23;78.40;94725.47;4952269;28;20263;-78
2023/08/03 01:05:41;;;;;;;15.05;10.00;;;;;;;23.28;78.22;94728.88;4949760;28;20221;-77
2023/08/03 01:08:06;;;;;;;13.93;9.82;;;;;;;23.14;78.58;94727.16;4959138;28;20313;-77
2023/08/03 01:10:32;;;;;;;15.68;10.30;;;;;;;23.09;78.84;94728.00;4951743;28;20232;-78
2023/08/03 01:12:57;;;;;;;13.48;10.00;;;;;;;23.15;78.65;94729.53;4947253;28;20233;-78
2023/08/03 01:15:23;;;;;;;13.45;9.82;;;;;;;23.21;78.59;94728.44;4917610;28;20244;-78
2023/08/03 01:17:48;;;;;;;11.93;9.73;;;;;;;23.14;78.34;94727.94;4944938;28;20229;-79
2023/08/03 01:20:18;;;;;;;14.63;10.35;;;;;;;22.94;79.54;94724.66;4952087;28;20232;-78
2023/08/03 01:22:43;;;;;;;13.30;10.20;;;;;;;23.12;78.96;94729.31;4951669;28;20726;-77
2023/08/03 01:25:09;;;;;;;13.98;9.95;;;;;;;23.12;78.90;94726.66;4941946;28;20247;-79
2023/08/03 01:27:35;;;;;;;15.98;10.23;;;;;;;23.12;78.80;94723.97;4937065;28;20902;-79
2023/08/03 01:30:00;;;;;;;15.38;9.95;;;;;;;23.07;79.17;94727.47;4951158;28;20246;-79
2023/08/03 01:32:26;;;;;;;14.13;9.95;;;;;;;23.20;78.75;94734.03;4952557;28;20310;-78
2023/08/03 01:34:51;;;;;;;12.23;9.38;;;;;;;23.19;78.88;94729.78;4950085;28;20235;-78
2023/08/03 01:37:20;;;;;;;16.40;10.00;;;;;;;23.17;78.87;94727.38;4964796;28;20220;-79
2023/08/03 01:39:45;;;;;;;15.40;10.18;;;;;;;23.09;79.45;94730.69;4949833;28;20244;-79
2023/08/03 01:42:14;;;;;;;13.73;10.07;;;;;;;23.11;79.15;94731.19;4940055;28;20265;-78
2023/08/03 01:44:40;;;;;;;15.00;9.82;;;;;;;23.09;79.34;94732.53;4951321;28;20236;-80
2023/08/03 01:47:06;;;;;;;18.77;10.15;;;;;;;22.93;79.92;94736.44;4921974;28;20300;-80
2023/08/03 01:49:32;;;;;;;15.55;10.40;;;;;;;22.89;80.25;94746.06;4969111;28;20681;-79
2023/08/03 01:51:57;;;;;;;16.00;10.48;;;;;;;22.86;80.11;94744.75;4958293;28;20228;-79
2023/08/03 01:54:23;;;;;;;16.67;10.23;;;;;;;22.69;80.72;94731.00;4913589;29;20232;-79
2023/08/03 01:56:48;;;;;;;19.88;10.45;;;;;;;22.77;80.67;94733.09;4913989;28;20612;-78
2023/08/03 01:59:14;;;;;;;13.65;10.38;;;;;;;22.69;80.92;94737.16;4917942;29;20634;-78
2023/08/03 02:01:39;;;;;;;13.70;10.05;;;;;;;22.74;80.59;94734.44;5016211;28;20237;-78
2023/08/03 02:04:05;;;;;;;13.32;9.95;;;;;;;22.88;80.05;94741.81;4974530;28;20229;-79
2023/08/03 02:06:31;;;;;;;12.48;9.93;;;;;;;23.01;79.23;94738.47;4926798;28;20229;-79
2023/08/03 02:08:57;;;;;;;16.10;9.75;;;;;;;22.81;80.09;94738.69;4964492;28;20747;-78
2023/08/03 02:11:22;;;;;;;15.43;9.77;;;;;;;22.84;79.83;94740.78;4930165;28;20233;-78
2023/08/03 02:13:48;;;;;;;13.50;10.18;;;;;;;22.85;79.81;94739.69;4930008;28;20271;-79
2023/08/03 02:16:13;;;;;;;14.00;10.15;;;;;;;22.83;79.83;94737.31;4931876;29;20756;-79
2023/08/03 02:18:39;;;;;;;16.15;10.00;;;;;;;22.64;80.55;94734.53;4919460;28;20229;-79
2023/08/03 02:21:05;;;;;;;15.60;10.10;;;;;;;22.69;80.32;94731.81;4933780;29;20312;-77
2023/08/03 02:23:31;;;;;;;14.15;10.15;;;;;;;22.55;81.07;94728.16;4923916;28;20249;-79
2023/08/03 02:25:56;;;;;;;13.45;10.15;;;;;;;22.59;80.83;94729.19;4921507;29;20282;-79
2023/08/03 02:28:22;;;;;;;15.20;10.05;;;;;;;22.74;80.08;94734.44;5015309;28;20239;-80
2023/08/03 02:30:47;;;;;;;16.70;10.13;;;;;;;22.84;79.57;94743.44;4939760;28;20233;-78
2023/08/03 02:33:13;;;;;;;14.02;10.13;;;;;;;22.84;79.18;94744.25;4921746;29;20232;-78
2023/08/03 02:35:39;;;;;;;15.27;10.50;;;;;;;22.80;79.32;94743.22;4919424;28;20725;-79
2023/08/03 02:38:08;;;;;;;16.25;10.70;;;;;;;22.92;78.84;94740.19;4916916;29;20611;-78
2023/08/03 02:40:33;;;;;;;15.98;9.43;;;;;;;22.75;79.44;94745.91;4926551;29;20264;-79
2023/08/03 02:42:59;;;;;;;14.57;10.10;;;;;;;22.60;80.10;94746.00;4918138;29;20233;-79
2023/08/03 02:45:24;;;;;;;14.07;9.73;;;;;;;22.46;80.77;94742.38;4931300;28;20221;-78
2023/08/03 02:47:50;;;;;;;17.30;10.25;;;;;;;22.50;80.82;94738.88;4948871;28;20711;-78
2023/08/03 02:50:15;;;;;;;13.88;9.75;;;;;;;22.52;80.87;94746.59;4921407;29;20225;-78
2023/08/03 02:52:41;;;;;;;15.48;9.70;;;;;;;22.51;80.61;94751.13;4932730;28;20238;-77
2023/08/03 02:55:06;;;;;;;14.30;10.10;;;;;;;22.52;80.88;94744.72;4933107;29;20234;-78
2023/08/03 02:57:32;;;;;;;14.35;9.82;;;;;;;22.49;80.88;94741.81;4936499;29;20324;-78
2023/08/03 02:59:57;;;;;;;15.63;9.98;;;;;;;22.27;81.87;94744.09;4928976;28;20233;-78
2023/08/03 03:02:23;;;;;;;14.45;10.27;;;;;;;22.22;82.39;94744.91;4959669;28;20694;-78
2023/08/03 03:04:49;;;;;;;16.05;10.18;;;;;;;22.28;81.90;94751.84;4937204;28;20241;-79
2023/08/03 03:07:15;;;;;;;13.77;10.13;;;;;;;22.30;82.11;94760.34;4932487;29;20991;-78
2023/08/03 03:09:41;;;;;;;13.98;10.30;;;;;;;22.30;82.19;94756.88;4918139;29;20231;-78
2023/08/03 03:12:06;;;;;;;15.30;10.07;;;;;;;22.16;82.65;94755.91;4933459;29;20706;-78
2023/08/03 03:14:32;;;;;;;16.80;10.32;;;;;;;22.23;82.32;94753.72;4931657;29;20303;-78
2023/08/03 03:16:57;;;;;;;17.23;10.23;;;;;;;22.33;82.02;94764.34;4931952;29;20252;-78
2023/08/03 03:19:23;;;;;;;18.05;10.35;;;;;;;22.25;82.30;94760.38;4937105;29;20236;-78
2023/08/03 03:21:48;;;;;;;14.48;10.25;;;;;;;22.23;82.35;94764.38;4933253;29;20237;-79
2023/08/03 03:24:14;;;;;;;14.45;10.20;;;;;;;22.33;82.36;94765.09;4964749;28;20243;-78
2023/08/03 03:26:39;;;;;;;16.65;10.48;;;;;;;22.42;81.55;94770.69;4938307;28;20240;-78
2023/08/03 03:29:05;;;;;;;15.35;10.35;;;;;;;22.21;82.41;94764.66;4956192;28;20239;-79
2023/08/03 03:31:30;;;;;;;16.23;10.38;;;;;;;22.27;81.87;94766.22;4941386;28;20726;-79
2023/08/03 03:33:56;;;;;;;15.50;10.20;;;;;;;22.32;81.79;94776.06;4954826;28;20236;-78
2023/08/03 03:36:21;;;;;;;15.68;10.27;;;;;;;22.37;81.60;94771.50;4953598;28;20228;-78
2023/08/03 03:38:47;;;;;;;16.42;9.63;;;;;;;22.38;81.94;94774.97;4952308;28;20293;-78
2023/08/03 03:41:12;;;;;;;15.13;10.50;;;;;;;22.29;82.33;94774.75;4928453;28;20627;-78
2023/08/03 03:43:37;;;;;;;17.60;11.02;;;;;;;22.41;81.67;94766.41;4940984;28;20847;-77
2023/08/03 03:46:03;;;;;;;16.00;10.60;;;;;;;22.46;81.27;94769.03;4938630;28;20282;-78
2023/08/03 03:48:28;;;;;;;15.27;10.48;;;;;;;22.38;81.60;94773.09;4938591;28;20232;-77
2023/08/03 03:50:54;;;;;;;16.00;10.25;;;;;;;22.33;81.96;94775.00;4936853;28;20244;-78
2023/08/03 03:53:19;;;;;;;17.38;10.45;;;;;;;22.29;82.44;94766.75;4937778;28;20235;-77
2023/08/03 03:55:45;;;;;;;16.95;10.38;;;;;;;22.24;82.97;94781.97;4937155;28;20615;-79
2023/08/03 03:58:10;;;;;;;15.13;10.32;;;;;;;22.16;83.24;94783.38;4954089;28;20229;-79
2023/08/03 04:00:40;;;;;;;14.57;10.20;;;;;;;22.09;83.47;94775.66;4921340;28;20224;-76
2023/08/03 04:03:08;;;;;;;17.20;11.20;;;;;;;22.24;82.89;94788.09;4932715;28;20229;-78
2023/08/03 04:05:35;;;;;;;17.85;10.93;;;;;;;22.17;82.96;94784.13;4927173;28;20228;-79
2023/08/03 04:08:01;;;;;;;16.45;10.18;;;;;;;22.25;82.51;94781.72;4937844;28;20324;-79
2023/08/03 04:10:26;;;;;;;16.25;11.00;;;;;;;22.33;82.08;94778.44;4951595;28;20255;-79
2023/08/03 04:12:52;;;;;;;19.73;10.95;;;;;;;22.46;81.62;94788.53;4936090;28;20333;-78
2023/08/03 04:15:17;;;;;;;15.43;10.68;;;;;;;22.59;80.54;94784.44;4938544;28;20671;-77
2023/08/03 04:17:45;;;;;;;15.55;10.80;;;;;;;22.32;81.55;94784.88;4931539;28;20260;-78
2023/08/03 04:20:11;;;;;;;17.15;10.60;;;;;;;22.22;81.78;94779.59;4921046;28;20252;-79
2023/08/03 04:22:36;;;;;;;15.93;10.93;;;;;;;22.45;80.54;94792.25;4950126;28;20305;-78
2023/08/03 04:25:03;;;;;;;16.23;11.02;;;;;;;22.58;80.40;94790.84;4921306;28;20228;-79
2023/08/03 04:27:29;;;;;;;17.00;11.63;;;;;;;22.56;81.14;94793.78;4946852;28;20758;-79
2023/08/03 04:29:56;;;;;;;17.88;11.48;;;;;;;22.73;80.43;94791.56;4933103;28;20309;-79
2023/08/03 04:32:22;;;;;;;18.17;12.00;;;;;;;22.82;79.74;94793.63;4922228;28;20379;-78
2023/08/03 04:34:47;;;;;;;20.67;11.80;;;;;;;22.91;80.11;94800.78;4951047;28;20622;-79
2023/08/03 04:37:13;;;;;;;17.60;11.73;;;;;;;22.84;80.07;94807.50;4951558;28;20243;-79
2023/08/03 04:39:39;;;;;;;22.02;11.57;;;;;;;22.89;79.60;94799.44;4932559;28;20234;-81
2023/08/03 04:42:05;;;;;;;18.50;11.60;;;;;;;23.03;79.26;94805.75;4934362;28;20234;-79
2023/08/03 04:44:31;;;;;;;17.63;12.13;;;;;;;22.97;79.48;94802.34;4934584;28;20236;-79
2023/08/03 04:46:56;;;;;;;20.77;12.57;;;;;;;22.96;79.54;94800.72;4947819;28;20603;-77
2023/08/03 04:49:22;;;;;;;19.85;12.23;;;;;;;23.02;79.32;94809.50;4946150;28;20254;-80
2023/08/03 04:51:51;;;;;;;19.40;11.98;;;;;;;23.14;78.74;94812.63;4948041;28;20228;-78
2023/08/03 04:54:17;;;;;;;20.08;12.38;;;;;;;23.11;78.76;94805.16;4934177;28;20258;-79
2023/08/03 04:56:43;;;;;;;18.83;12.10;;;;;;;23.10;78.39;94812.38;4949903;28;20785;-69
2023/08/03 04:59:08;;;;;;;17.25;11.88;;;;;;;23.15;78.41;94806.19;4940147;28;20293;-69
2023/08/03 05:01:34;;;;;;;20.10;11.45;;;;;;;22.96;79.07;94806.06;4947933;28;20238;-69
2023/08/03 05:04:00;;;;;;;19.55;12.18;;;;;;;22.94;78.76;94810.09;4929575;28;20232;-69
2023/08/03 05:06:27;;;;;;;20.05;12.57;;;;;;;22.94;78.99;94813.56;4921114;28;20248;-68
2023/08/03 05:08:53;;;;;;;21.70;12.43;;;;;;;23.15;78.09;94814.19;4927743;28;20642;-68
2023/08/03 05:11:18;;;;;;;20.33;11.88;;;;;;;23.21;78.24;94810.41;4939439;28;20327;-70
2023/08/03 05:13:44;;;;;;;19.23;12.48;;;;;;;23.18;77.72;94813.63;4946919;28;20237;-71
2023/08/03 05:16:09;;;;;;;17.75;12.48;;;;;;;23.24;77.22;94826.66;4947451;28;20244;-70
2023/08/03 05:18:35;;;;;;;16.60;11.70;;;;;;;23.40;76.89;94817.47;4950497;28;20227;-70
2023/08/03 05:21:00;;;;;;;17.92;11.98;;;;;;;23.47;77.22;94819.81;4935390;28;20235;-69
2023/08/03 05:23:26;;;;;;;18.58;11.68;;;;;;;23.66;75.78;94827.91;4940931;28;20232;-70
2023/08/03 05:25:58;;;;;;;19.83;12.85;;;;;;;23.74;75.21;94822.72;4946542;28;20253;-69
2023/08/03 05:28:23;;;;;;;18.00;12.05;;;;;;;23.98;74.07;94826.22;4917981;28;20240;-69
2023/08/03 05:30:49;;;;;;;19.95;12.65;;;;;;;24.40;72.64;94830.03;4932649;28;20256;-69
2023/08/03 05:33:15;;;;;;;17.17;12.32;;;;;;;24.82;70.53;94830.00;4920961;28;20235;-71
2023/08/03 05:35:41;;;;;;;23.80;12.68;;;;;;;25.15;69.33;94834.28;4925781;28;20323;-68
2023/08/03 05:38:06;;;;;;;16.95;12.18;;;;;;;25.51;67.99;94833.75;4925464;28;20706;-69
2023/08/03 05:40:31;;;;;;;18.02;12.00;;;;;;;25.45;68.44;94838.41;4938115;28;20244;-70
2023/08/03 05:42:57;;;;;;;18.95;12.57;;;;;;;25.06;70.13;94827.22;4924155;28;20268;-70
2023/08/03 05:45:40;;;;;;;18.15;12.02;;;;;;;24.87;70.82;94827.25;4953972;28;20231;-69
2023/08/03 05:48:13;;;;;;;17.15;12.05;;;;;;;24.81;71.15;94830.28;4937892;28;20233;-70
2023/08/03 05:50:48;;;;;;;17.50;11.95;;;;;;;24.85;70.26;94824.06;4976215;28;20776;-70
2023/08/03 05:53:14;;;;;;;16.67;12.23;;;;;;;24.85;70.80;94823.25;4986506;28;20741;-69
2023/08/03 05:55:40;;;;;;;17.48;11.82;;;;;;;24.90;71.11;94829.34;4941344;28;20260;-70
2023/08/03 05:58:08;;;;;;;21.20;12.77;;;;;;;24.85;71.90;94842.81;4939621;28;20730;-70
2023/08/03 06:00:33;;;;;;;21.02;12.32;;;;;;;24.79;71.76;94837.81;4920145;29;20221;-69
2023/08/03 06:02:59;;;;;;;18.48;12.77;;;;;;;24.77;71.80;94840.00;4935174;29;20266;-69
2023/08/03 06:05:51;;;;;;;18.23;12.27;;;;;;;24.85;70.85;94840.13;4922198;29;20278;-70
2023/08/03 06:08:21;;;;;;;17.05;12.55;;;;;;;24.94;71.49;94838.38;4966049;28;20320;-71
2023/08/03 06:10:48;;;;;;;24.00;13.57;;;;;;;24.91;71.08;94841.63;4930168;28;20229;-69
2023/08/03 06:13:14;;;;;;;21.80;13.70;;;;;;;24.75;70.95;94842.91;4929648;28;20868;-70
2023/08/03 06:15:40;;;;;;;25.65;13.15;;;;;;;24.89;71.29;94841.13;4924249;28;20716;-70
2023/08/03 06:18:09;;;;;;;20.38;13.40;;;;;;;25.05;70.30;94844.41;4942203;28;20232;-70
2023/08/03 06:20:35;;;;;;;21.08;13.52;;;;;;;25.12;69.98;94848.31;4951299;28;20232;-70
2023/08/03 06:23:00;;;;;;;21.30;13.70;;;;;;;24.94;70.73;94842.94;4952314;28;20294;-70
2023/08/03 06:25:27;;;;;;;23.38;13.65;;;;;;;25.12;69.75;94842.13;4927731;28;20284;-69
2023/08/03 06:27:52;;;;;;;21.52;13.23;;;;;;;25.18;69.47;94852.47;4938663;28;20901;-69
2023/08/03 06:30:18;;;;;;;19.50;12.60;;;;;;;25.19;69.06;94850.59;4935042;28;20229;-68
2023/08/03 06:32:43;;;;;;;23.05;13.13;;;;;;;25.25;69.10;94847.53;4953477;28;20319;-69
2023/08/03 06:35:45;;;;;;;18.83;13.02;;;;;;;25.31;68.96;94842.91;4929009;28;20253;-69
2023/08/03 06:38:12;;;;;;;21.73;13.63;;;;;;;25.45;68.78;94851.00;4948746;28;20227;-69
2023/08/03 06:40:40;;;;;;;19.40;13.85;;;;;;;25.52;67.97;94852.22;4941196;28;20227;-68
2023/08/03 06:43:05;;;;;;;23.95;13.30;;;;;;;25.42;68.87;94853.16;4939710;28;20310;-69
2023/08/03 06:45:31;;;;;;;20.13;13.48;;;;;;;25.25;68.36;94858.25;4940138;28;20306;-77
2023/08/03 06:47:57;;;;;;;18.73;12.75;;;;;;;25.39;68.10;94851.06;4923430;28;20933;-78
2023/08/03 06:50:23;;;;;;;23.08;13.15;;;;;;;25.51;68.63;94853.28;4945738;28;20638;-78
2023/08/03 06:52:49;;;;;;;20.85;13.57;;;;;;;25.65;67.85;94858.72;4940166;28;20224;-77
2023/08/03 06:55:15;;;;;;;20.10;12.88;;;;;;;25.58;68.27;94852.94;4930009;28;20432;-78
2023/08/03 06:57:41;;;;;;;32.85;14.93;;;;;;;25.65;67.42;94853.34;4925885;28;20770;-78
2023/08/03 07:00:07;;;;;;;22.75;14.02;;;;;;;25.68;67.23;94856.22;4926069;28;20237;-76
2023/08/03 07:02:33;;;;;;;19.63;13.07;;;;;;;25.73;67.36;94852.66;4945593;28;20255;-77
2023/08/03 07:04:59;;;;;;;23.83;13.23;;;;;;;25.82;67.66;94853.56;4938873;28;20225;-78
2023/08/03 07:07:25;;;;;;;21.83;13.23;;;;;;;25.97;66.75;94846.03;4937773;28;20236;-78
2023/08/03 07:09:51;;;;;;;22.65;12.38;;;;;;;26.08;67.43;94844.72;4944518;28;20636;-78
2023/08/03 07:12:16;;;;;;;24.00;12.32;;;;;;;26.17;66.65;94846.78;4935212;28;20851;-78
2023/08/03 07:14:42;;;;;;;25.02;12.70;;;;;;;26.29;66.01;94849.75;4926550;28;20883;-78
2023/08/03 07:17:07;;;;;;;20.38;12.13;;;;;;;26.34;65.24;94842.41;4926534;28;20275;-78
2023/08/03 07:19:33;;;;;;;21.40;12.15;;;;;;;26.35;65.72;94843.97;4939634;28;20266;-78
2023/08/03 07:21:58;;;;;;;17.00;12.02;;;;;;;26.39;65.15;94844.94;4935809;28;20605;-78
2023/08/03 07:24:26;;;;;;;20.67;12.35;;;;;;;26.44;64.42;94844.84;4954678;28;20303;-78
2023/08/03 07:26:52;;;;;;;16.90;11.77;;;;;;;26.49;65.02;94842.06;4942006;28;20710;-79
2023/08/03 07:29:18;;;;;;;21.17;12.40;;;;;;;26.57;64.56;94840.56;4954645;28;20233;-77
2023/08/03 07:31:44;;;;;;;17.55;11.95;;;;;;;26.64;63.36;94844.44;4950670;28;20235;-78
2023/08/03 07:34:09;;;;;;;18.40;12.93;;;;;;;26.78;63.11;94832.88;4939949;28;20641;-78
2023/08/03 07:36:34;;;;;;;17.13;11.75;;;;;;;26.79;63.67;94831.78;4938365;28;20232;-78
2023/08/03 07:39:00;;;;;;;18.90;12.15;;;;;;;26.94;61.93;94836.81;4943364;28;20237;-77
2023/08/03 07:41:26;;;;;;;17.27;11.57;;;;;;;27.01;62.09;94839.88;4946704;28;20224;-78
2023/08/03 07:43:52;;;;;;;16.67;11.93;;;;;;;27.11;61.28;94842.31;4949652;28;20232;-78
2023/08/03 07:46:17;;;;;;;17.20;11.90;;;;;;;26.98;62.11;94837.81;4933338;28;20253;-77
2023/08/03 07:48:43;;;;;;;16.83;12.27;;;;;;;26.95;62.28;94831.13;4943969;28;20251;-77
2023/08/03 07:51:15;;;;;;;19.08;11.88;;;;;;;26.93;62.41;94835.22;4928796;28;20632;-78
2023/08/03 07:53:40;;;;;;;13.40;11.43;;;;;;;27.13;62.33;94832.84;4925109;28;20321;-78
2023/08/03 07:56:19;;;;;;;18.17;11.77;;;;;;;27.29;60.84;94844.06;4923216;28;20287;-77
2023/08/03 07:58:45;;;;;;;17.30;12.27;;;;;;;27.27;61.38;94830.13;4950748;28;20232;-77
2023/08/03 08:01:10;;;;;;;19.23;12.23;;;;;;;27.34;61.56;94831.28;4929081;28;20686;-77
2023/08/03 08:03:37;;;;;;;15.70;12.23;;;;;;;27.42;60.76;94829.00;4937152;28;20597;-73
2023/08/03 08:06:13;;;;;;;20.20;12.63;;;;;;;27.61;60.38;94833.03;4938079;28;20224;-77
2023/08/03 08:08:38;;;;;;;21.65;12.52;;;;;;;27.72;59.65;94829.00;4951584;28;20277;-77
2023/08/03 08:11:04;;;;;;;17.88;12.43;;;;;;;27.62;59.85;94828.47;4952774;28;20638;-78
2023/08/03 08:13:30;;;;;;;19.05;12.18;;;;;;;27.66;60.18;94832.91;4943320;28;21070;-78
2023/08/03 08:16:03;;;;;;;16.23;12.45;;;;;;;27.54;59.75;94831.91;4932803;28;20309;-77
2023/08/03 08:18:29;;;;;;;17.83;12.52;;;;;;;27.56;60.12;94822.41;4938233;28;20741;-78
2023/08/03 08:20:58;;;;;;;18.60;12.75;;;;;;;27.65;60.55;94823.28;4929305;28;20275;-78
2023/08/03 08:23:23;;;;;;;15.52;12.02;;;;;;;27.76;61.01;94819.22;5019998;28;20231;-77
2023/08/03 08:25:49;;;;;;;19.60;12.20;;;;;;;27.92;60.17;94828.44;4937833;28;20225;-78
2023/08/03 08:28:14;;;;;;;18.55;12.45;;;;;;;27.97;59.37;94816.75;4923515;29;20233;-79
2023/08/03 08:30:40;;;;;;;17.42;12.20;;;;;;;28.14;59.46;94811.47;4927072;29;20275;-77
2023/08/03 08:33:05;;;;;;;14.60;12.20;;;;;;;28.21;58.43;94819.09;4973597;28;20229;-76
2023/08/03 08:35:31;;;;;;;20.77;11.93;;;;;;;28.23;58.97;94812.28;4983179;28;20360;-78
2023/08/03 08:37:59;;;;;;;17.40;12.23;;;;;;;28.27;58.18;94807.09;5006734;28;20229;-78
2023/08/03 08:40:27;;;;;;;19.70;12.20;;;;;;;28.35;57.48;94809.00;4999281;28;20722;-78
2023/08/03 08:42:54;;;;;;;17.23;11.73;;;;;;;28.46;56.25;94808.41;4965702;28;20282;-77
2023/08/03 08:45:19;;;;;;;17.90;11.88;;;;;;;28.55;56.43;94805.72;4957294;28;20228;-78
2023/08/03 08:47:45;;;;;;;14.48;11.57;;;;;;;28.68;56.77;94800.19;4938540;28;20275;-77
2023/08/03 08:50:11;;;;;;;20.15;12.05;;;;;;;28.72;56.48;94802.28;4951346;28;20246;-76
2023/08/03 08:52:36;;;;;;;15.50;11.57;;;;;;;28.84;55.05;94799.75;4935268;28;20623;-76
2023/08/03 08:55:12;;;;;;;19.00;12.18;;;;;;;28.86;55.30;94798.31;4937971;28;20228;-79
2023/08/03 08:57:38;;;;;;;19.55;12.15;;;;;;;28.85;56.42;94795.94;4958243;28;20240;-78
2023/08/03 09:00:06;;;;;;;14.68;12.13;;;;;;;28.90;55.73;94798.50;4960452;28;20228;-78
2023/08/03 09:02:32;;;;;;;18.02;12.43;;;;;;;29.27;54.57;94800.56;4950627;28;20225;-78
2023/08/03 09:05:07;;;;;;;20.25;12.68;;;;;;;29.35;54.26;94792.44;4951435;28;20243;-79
2023/08/03 09:07:33;;;;;;;19.17;11.90;;;;;;;29.33;55.24;94797.34;4941514;28;20267;-77
2023/08/03 09:10:01;;;;;;;17.48;12.27;;;;;;;29.37;53.99;94796.72;4951944;28;20299;-78
2023/08/03 09:12:27;;;;;;;20.73;12.38;;;;;;;29.47;54.21;94794.50;4939253;28;20231;-77
2023/08/03 09:14:53;;;;;;;21.05;12.30;;;;;;;29.44;54.77;94786.25;4934284;28;20237;-78
2023/08/03 09:17:19;;;;;;;19.25;12.50;;;;;;;29.62;54.63;94783.16;4949369;28;20240;-77
2023/08/03 09:19:48;;;;;;;16.52;11.85;;;;;;;29.78;53.13;94789.66;4948667;28;20236;-78
2023/08/03 09:22:13;;;;;;;17.55;11.90;;;;;;;29.83;52.90;94791.41;4944587;28;20220;-79
2023/08/03 09:24:39;;;;;;;16.00;12.32;;;;;;;29.94;53.01;94795.31;4947002;28;20232;-78
2023/08/03 09:27:04;;;;;;;17.45;12.73;;;;;;;30.08;51.60;94789.69;4954061;28;20310;-76
2023/08/03 09:29:34;;;;;;;18.35;12.38;;;;;;;30.14;52.63;94786.47;4960172;28;20618;-78
2023/08/03 09:32:03;;;;;;;16.13;12.00;;;;;;;30.23;52.18;94778.34;4962574;28;20220;-79
2023/08/03 09:34:42;;;;;;;17.67;12.45;;;;;;;30.24;51.20;94775.31;4968358;28;20228;-78
2023/08/03 09:37:08;;;;;;;18.40;12.40;;;;;;;30.37;52.31;94779.72;5026067;28;20220;-77
2023/08/03 09:39:34;;;;;;;15.57;12.27;;;;;;;30.45;52.83;94775.38;4936551;28;20622;-78
2023/08/03 09:42:05;;;;;;;17.40;12.02;;;;;;;30.55;52.12;94773.06;4951851;28;20964;-78
2023/08/03 09:44:33;;;;;;;20.63;12.60;;;;;;;30.57;51.02;94770.06;4980544;28;20239;-78
2023/08/03 09:47:02;;;;;;;18.58;12.90;;;;;;;30.65;51.30;94766.50;4967614;28;20717;-77
2023/08/03 09:49:28;;;;;;;16.00;12.68;;;;;;;30.67;51.31;94766.19;4970335;28;20260;-78
2023/08/03 09:51:55;;;;;;;18.65;12.93;;;;;;;30.63;51.37;94766.03;4950710;28;20235;-78
2023/08/03 09:54:52;;;;;;;16.98;12.77;;;;;;;30.57;52.39;94751.91;4946276;28;20249;-78
2023/08/03 09:57:18;;;;;;;15.77;12.48;;;;;;;30.83;51.78;94757.16;4966068;28;20224;-78
2023/08/03 09:59:44;;;;;;;16.30;12.10;;;;;;;30.91;50.56;94760.91;4921025;28;20238;-78
2023/08/03 10:02:09;;;;;;;14.38;12.07;;;;;;;31.05;50.50;94758.72;4967689;28;21003;-78
2023/08/03 10:04:40;;;;;;;14.52;11.95;;;;;;;31.28;49.80;94762.66;4930586;28;20276;-77
2023/08/03 10:07:06;;;;;;;17.33;12.45;;;;;;;31.30;50.57;94750.38;4968972;28;20242;-79
2023/08/03 10:09:38;;;;;;;17.52;12.25;;;;;;;31.25;50.60;94753.28;4924971;28;20375;-78
2023/08/03 10:12:06;;;;;;;17.05;12.38;;;;;;;31.33;49.29;94748.91;4915879;28;20712;-79
2023/08/03 10:14:32;;;;;;;16.00;12.30;;;;;;;31.39;50.03;94747.56;4974177;28;20832;-79
2023/08/03 10:17:00;;;;;;;14.73;12.32;;;;;;;31.60;47.79;94747.53;4961955;28;20237;-80
2023/08/03 10:19:27;;;;;;;16.58;13.00;;;;;;;31.71;48.63;94745.97;5005051;28;20232;-78
2023/08/03 10:21:53;;;;;;;16.20;12.57;;;;;;;31.69;49.47;94738.16;5013080;28;20245;-78
2023/08/03 10:24:18;;;;;;;19.88;12.73;;;;;;;31.70;48.00;94726.22;4996263;28;20229;-79
2023/08/03 10:26:45;;;;;;;14.90;12.50;;;;;;;31.79;47.53;94726.91;4959356;28;20708;-79
2023/08/03 10:29:10;;;;;;;15.27;11.93;;;;;;;31.86;46.96;94721.72;4935015;29;20324;-78
2023/08/03 10:31:55;;;;;;;16.85;11.75;;;;;;;32.00;48.92;94715.22;4938954;29;20675;-79
2023/08/03 10:34:27;;;;;;;15.25;11.80;;;;;;;32.01;46.62;94714.06;4939644;28;20229;-78
2023/08/03 10:36:55;;;;;;;14.02;12.45;;;;;;;32.07;46.91;94707.31;4956135;28;20322;-77
2023/08/03 10:39:50;;;;;;;15.90;12.02;;;;;;;32.15;47.18;94709.13;4944277;28;20252;-79
2023/08/03 10:42:29;;;;;;;13.88;11.73;;;;;;;32.27;46.91;94701.75;4946324;28;20233;-79
2023/08/03 10:45:15;;;;;;;14.52;11.70;;;;;;;32.19;46.55;94705.38;4946112;28;20244;-79
2023/08/03 10:47:41;;;;;;;14.18;11.30;;;;;;;32.32;45.68;94698.00;4954737;28;20236;-79
2023/08/03 10:50:06;;;;;;;13.85;10.93;;;;;;;32.32;45.43;94700.72;4955261;28;20236;-79
2023/08/03 10:52:32;;;;;;;19.38;12.20;;;;;;;32.48;45.55;94696.19;4940706;28;20237;-78
2023/08/03 10:54:59;;;;;;;14.75;11.73;;;;;;;32.69;45.53;94702.25;4938879;28;20366;-78
2023/08/03 10:57:26;;;;;;;13.40;11.45;;;;;;;32.47;46.31;94703.53;4922697;28;20748;-77
2023/08/03 10:59:53;;;;;;;14.65;11.75;;;;;;;32.16;46.33;94699.84;4926606;28;20275;-78
2023/08/03 11:02:22;;;;;;;16.10;12.02;;;;;;;32.24;46.71;94697.03;4940098;28;20247;-79
2023/08/03 11:05:04;;;;;;;17.05;11.52;;;;;;;32.38;46.36;94696.66;4952902;28;20241;-80
2023/08/03 11:07:59;;;;;;;12.80;11.40;;;;;;;32.34;44.57;94687.59;4925363;28;20709;-78
2023/08/03 11:10:24;;;;;;;13.13;10.88;;;;;;;32.52;43.16;94692.47;4990823;28;20285;-78
2023/08/03 11:12:52;;;;;;;13.30;11.40;;;;;;;32.57;44.01;94686.03;4961238;28;20244;-79
2023/08/03 11:15:18;;;;;;;13.95;11.50;;;;;;;32.61;44.05;94684.19;4918487;28;20952;-78
2023/08/03 11:17:46;;;;;;;14.02;11.43;;;;;;;32.64;44.54;94678.09;4939049;28;20247;-78